6A2

Griffin-Spalding County Airport

Griffin, Georgia, USA
METAR K6A2 260335Z AUTO 31003KT 10SM CLR 12/09 A2993 RMK AO2
Observed Flight Rules
Apr-26 @ 03:35 UTC (16 minutes ago) Visual Flight Rules
Wind Visibility Clouds
310° at 3 knots 10 miles
  • Clear skies
Temperatures Readings
Current 12°C / 54°F
Dewpoint 9°C / 48°F
Humidity 82%
Altimeter 29.93" Hg
Pressure 1014 hPa
Elevation 292
METAR K6A2 260335Z AUTO 31003KT 10SM CLR 12/09 A2993 RMK AO2
Observed Flight Rules
Apr-26 @ 03:35 UTC
(16 minutes ago)
VFR
Wind Visibility
310° at 3 knots 10 miles
Clouds
  • Clear skies
Temperature Dewpoint
12°C / 54°F 9°C / 48°F
Humidity Altimeter Pressure
82% 29.93" Hg 1014 hPa